createdAt,value
2023-02-28T00:01:21.912Z,3.95
2023-02-28T00:03:48.518Z,3.25
2023-02-28T00:06:15.222Z,5.00
2023-02-28T00:08:42.274Z,3.03
2023-02-28T00:11:14.908Z,3.58
2023-02-28T00:13:47.548Z,3.03
2023-02-28T00:16:21.026Z,4.30
2023-02-28T00:18:51.305Z,2.65
2023-02-28T00:21:19.585Z,2.20
2023-02-28T00:23:46.886Z,1.83
2023-02-28T00:26:13.866Z,5.50
2023-02-28T00:28:40.503Z,3.13
2023-02-28T00:31:07.289Z,5.22
2023-02-28T00:33:33.982Z,3.53
2023-02-28T00:36:07.175Z,5.53
2023-02-28T00:38:33.912Z,3.08
2023-02-28T00:41:05.661Z,5.72
2023-02-28T00:43:35.980Z,1.85
2023-02-28T00:46:04.273Z,4.10
2023-02-28T00:48:31.351Z,2.92
2023-02-28T00:50:58.093Z,2.25
2023-02-28T00:53:24.690Z,2.05
2023-02-28T00:55:51.882Z,3.17
2023-02-28T00:58:19.497Z,1.53
2023-02-28T01:00:50.374Z,2.33
2023-02-28T01:03:18.942Z,4.60
2023-02-28T01:05:45.924Z,2.95
2023-02-28T01:08:12.999Z,3.28
2023-02-28T01:10:39.660Z,1.87
2023-02-28T01:13:06.316Z,1.83
2023-02-28T01:15:33.335Z,2.92
2023-02-28T01:18:00.116Z,4.65
2023-02-28T01:20:26.687Z,3.92
2023-02-28T01:22:53.199Z,2.13
2023-02-28T01:25:19.820Z,2.60
2023-02-28T01:27:46.620Z,2.95
2023-02-28T01:30:13.360Z,1.52
2023-02-28T01:32:40.064Z,1.80
2023-02-28T01:35:06.800Z,5.13
2023-02-28T01:37:33.402Z,4.45
2023-02-28T01:39:59.986Z,2.10
2023-02-28T01:42:26.641Z,2.30
2023-02-28T01:45:05.569Z,3.72
2023-02-28T01:47:42.518Z,2.00
2023-02-28T01:50:15.602Z,2.22
2023-02-28T01:52:43.002Z,3.90
2023-02-28T01:55:13.136Z,3.78
2023-02-28T01:57:44.387Z,2.30
2023-02-28T02:00:17.077Z,1.80
2023-02-28T02:02:47.631Z,2.20
2023-02-28T02:05:23.603Z,1.85
2023-02-28T02:07:55.280Z,1.48
2023-02-28T02:10:40.991Z,2.67
2023-02-28T02:13:44.612Z,2.17
2023-02-28T02:16:28.153Z,1.85
2023-02-28T02:19:03.482Z,5.97
2023-02-28T02:21:51.073Z,2.28
2023-02-28T02:24:48.456Z,2.45
2023-02-28T02:27:34.718Z,2.23
2023-02-28T02:30:34.453Z,2.10
2023-02-28T02:33:38.755Z,3.35
2023-02-28T02:36:08.757Z,2.15
2023-02-28T02:38:57.020Z,7.97
2023-02-28T02:41:36.462Z,1.63
2023-02-28T02:44:08.640Z,3.00
2023-02-28T02:46:40.755Z,2.58
2023-02-28T02:49:12.666Z,4.13
2023-02-28T02:51:41.804Z,3.55
2023-02-28T02:54:30.062Z,1.70
2023-02-28T02:57:00.186Z,5.30
2023-02-28T02:59:29.351Z,5.18
2023-02-28T03:02:00.304Z,2.00
2023-02-28T03:04:32.012Z,1.55
2023-02-28T03:06:58.826Z,2.77
2023-02-28T03:09:26.685Z,2.42
2023-02-28T03:11:57.373Z,2.55
2023-02-28T03:14:27.380Z,2.13
2023-02-28T03:17:18.238Z,2.58
2023-02-28T03:20:06.497Z,3.87
2023-02-28T03:23:00.375Z,4.18
2023-02-28T03:25:47.014Z,3.78
2023-02-28T03:28:34.053Z,1.98
2023-02-28T03:31:10.134Z,4.50
2023-02-28T03:33:45.856Z,4.10
2023-02-28T03:36:18.199Z,2.85
2023-02-28T03:38:51.369Z,4.28
2023-02-28T03:41:24.875Z,3.90
2023-02-28T03:43:56.176Z,5.78
2023-02-28T03:46:26.272Z,2.57
2023-02-28T03:49:01.890Z,5.00
2023-02-28T03:51:30.724Z,6.95
2023-02-28T03:54:04.995Z,4.70
2023-02-28T03:56:40.604Z,3.55
2023-02-28T03:59:19.566Z,2.37
2023-02-28T04:01:48.390Z,3.22
2023-02-28T04:04:15.802Z,3.65
2023-02-28T04:06:43.780Z,3.15
2023-02-28T04:11:43.410Z,2.63
2023-02-28T04:14:12.132Z,2.17
2023-02-28T04:16:41.854Z,3.50
2023-02-28T04:19:10.205Z,2.40
2023-02-28T04:21:38.189Z,2.47
2023-02-28T04:24:05.417Z,2.40
2023-02-28T04:26:36.424Z,2.28
2023-02-28T04:29:05.722Z,2.47
2023-02-28T04:31:32.977Z,1.50
2023-02-28T04:33:59.783Z,1.80
2023-02-28T04:36:26.559Z,1.73
2023-02-28T04:38:53.468Z,1.27
2023-02-28T04:41:20.403Z,2.88
2023-02-28T04:43:47.049Z,1.92
2023-02-28T04:46:13.648Z,2.20
2023-02-28T04:48:41.166Z,2.70
2023-02-28T04:51:11.434Z,3.92
2023-02-28T04:53:40.188Z,2.90
2023-02-28T04:56:09.375Z,5.78
2023-02-28T04:58:35.988Z,1.95
2023-02-28T05:01:16.766Z,4.80
2023-02-28T05:03:44.069Z,3.88
2023-02-28T05:06:11.952Z,1.95
2023-02-28T05:08:38.797Z,2.90
2023-02-28T05:11:09.581Z,2.55
2023-02-28T05:13:36.748Z,1.70
2023-02-28T05:16:03.382Z,2.15
2023-02-28T05:18:30.069Z,1.90
2023-02-28T05:20:56.763Z,4.38
2023-02-28T05:23:24.728Z,3.60
2023-02-28T05:25:52.961Z,1.50
2023-02-28T05:28:20.290Z,2.05
2023-02-28T05:30:47.310Z,2.97
2023-02-28T05:33:14.402Z,2.03
2023-02-28T05:35:41.999Z,2.67
2023-02-28T05:38:08.598Z,1.43
2023-02-28T05:40:35.339Z,1.48
2023-02-28T05:43:02.000Z,2.00
2023-02-28T05:45:29.324Z,2.35
2023-02-28T05:47:56.719Z,1.67
2023-02-28T05:50:23.316Z,1.80
2023-02-28T05:52:52.601Z,4.10
2023-02-28T05:55:19.416Z,4.15
2023-02-28T05:57:45.971Z,1.33
2023-02-28T06:00:13.206Z,3.17
2023-02-28T06:02:41.593Z,3.10
2023-02-28T06:05:15.790Z,2.95
2023-02-28T06:07:42.821Z,2.33
2023-02-28T06:10:10.610Z,1.58
2023-02-28T06:12:38.212Z,2.05
2023-02-28T06:15:05.276Z,1.87
2023-02-28T06:17:32.134Z,3.05
2023-02-28T06:19:58.625Z,1.83
2023-02-28T06:22:25.308Z,4.00
2023-02-28T06:24:51.886Z,2.90
2023-02-28T06:27:18.555Z,3.43
2023-02-28T06:29:45.187Z,3.70
2023-02-28T06:32:11.831Z,3.45
2023-02-28T06:34:38.348Z,2.60
2023-02-28T06:37:05.047Z,4.05
2023-02-28T06:39:32.221Z,2.13
2023-02-28T06:41:58.950Z,2.08
2023-02-28T06:44:25.675Z,2.88
2023-02-28T06:46:52.484Z,3.58
2023-02-28T06:49:19.123Z,2.53
2023-02-28T06:51:46.161Z,2.80
2023-02-28T06:54:13.708Z,5.15
2023-02-28T06:56:40.693Z,2.55
2023-02-28T06:59:07.230Z,3.05
2023-02-28T07:01:34.212Z,2.45
2023-02-28T07:04:01.423Z,1.83
2023-02-28T07:06:28.796Z,4.50
2023-02-28T07:08:55.974Z,4.35
2023-02-28T07:11:29.188Z,6.20
2023-02-28T07:13:57.110Z,2.42
2023-02-28T07:16:26.472Z,2.60
2023-02-28T07:18:54.173Z,2.70
2023-02-28T07:21:20.911Z,2.20
2023-02-28T07:23:47.626Z,4.60
2023-02-28T07:26:17.953Z,2.33
2023-02-28T07:28:46.019Z,3.60
2023-02-28T07:31:14.907Z,2.88
2023-02-28T07:33:42.283Z,2.72
2023-02-28T07:36:16.327Z,9.77
2023-02-28T07:38:48.100Z,1.30
2023-02-28T07:41:16.246Z,2.17
2023-02-28T07:43:42.990Z,2.92
2023-02-28T07:46:13.009Z,2.95
2023-02-28T07:48:39.743Z,3.33
2023-02-28T07:51:06.378Z,3.42
2023-02-28T07:53:32.954Z,4.00
2023-02-28T07:56:01.811Z,1.55
2023-02-28T07:58:30.845Z,2.85
2023-02-28T08:00:58.676Z,5.72
2023-02-28T08:03:26.016Z,4.97
2023-02-28T08:05:53.869Z,2.10
2023-02-28T08:08:20.396Z,2.42
2023-02-28T08:10:47.042Z,1.52
2023-02-28T08:13:13.547Z,4.53
2023-02-28T08:15:42.345Z,6.47
2023-02-28T08:18:12.198Z,1.70
2023-02-28T08:20:38.839Z,4.25
2023-02-28T08:23:05.390Z,2.53
2023-02-28T08:25:32.370Z,4.20
2023-02-28T08:27:59.148Z,2.80
2023-02-28T08:30:25.977Z,6.10
2023-02-28T08:32:52.602Z,4.93
2023-02-28T08:35:19.209Z,1.98
2023-02-28T08:37:45.839Z,2.50
2023-02-28T08:40:18.932Z,4.63
2023-02-28T08:42:46.823Z,2.17
2023-02-28T08:45:15.389Z,5.82
2023-02-28T08:47:42.218Z,2.58
2023-02-28T08:50:20.100Z,2.42
2023-02-28T08:52:46.832Z,3.20
2023-02-28T08:55:15.719Z,2.13
2023-02-28T08:57:42.308Z,2.03
2023-02-28T09:00:09.423Z,1.98
2023-02-28T09:02:36.016Z,2.95
2023-02-28T09:05:02.632Z,2.15
2023-02-28T09:07:29.257Z,4.43
2023-02-28T09:09:56.468Z,3.53
2023-02-28T09:12:24.505Z,3.33
2023-02-28T09:14:51.606Z,3.90
2023-02-28T09:17:46.876Z,1.98
2023-02-28T09:20:14.880Z,3.13
2023-02-28T09:22:41.725Z,1.08
2023-02-28T09:25:08.460Z,2.03
2023-02-28T09:27:35.032Z,1.38
2023-02-28T09:30:01.820Z,1.63
2023-02-28T09:32:35.196Z,1.30
2023-02-28T09:35:01.762Z,1.60
2023-02-28T09:37:30.369Z,0.90
2023-02-28T09:39:57.059Z,1.35
2023-02-28T09:42:34.000Z,1.00
2023-02-28T09:45:07.344Z,1.07
2023-02-28T09:47:35.577Z,2.88
2023-02-28T09:50:18.164Z,1.05
2023-02-28T09:52:51.300Z,1.10
2023-02-28T09:55:41.423Z,0.80
2023-02-28T09:58:23.853Z,1.00
2023-02-28T10:01:01.676Z,2.85
2023-02-28T10:03:44.162Z,3.03
2023-02-28T10:06:16.846Z,0.85
2023-02-28T10:08:59.904Z,0.98
2023-02-28T10:11:28.401Z,0.90
2023-02-28T10:14:13.189Z,1.17
2023-02-28T10:17:00.422Z,1.33
2023-02-28T10:19:26.895Z,1.33
2023-02-28T10:22:00.271Z,4.10
2023-02-28T10:24:31.413Z,0.70
2023-02-28T10:27:07.146Z,0.85
2023-02-28T10:29:34.569Z,1.88
2023-02-28T10:32:03.685Z,1.00
2023-02-28T10:34:30.396Z,1.73
2023-02-28T10:36:57.467Z,0.90
2023-02-28T10:39:43.718Z,1.45
2023-02-28T10:42:26.839Z,0.80
2023-02-28T10:45:11.086Z,1.25
2023-02-28T10:47:51.862Z,1.05
2023-02-28T10:50:44.764Z,1.03
2023-02-28T10:53:11.296Z,1.15
2023-02-28T10:55:38.178Z,1.02
2023-02-28T10:58:24.325Z,1.00
2023-02-28T11:00:53.229Z,0.88
2023-02-28T11:03:32.064Z,1.80
2023-02-28T11:05:59.818Z,4.43
2023-02-28T11:08:26.918Z,1.42
2023-02-28T11:10:59.512Z,0.88
2023-02-28T11:13:32.345Z,1.30
2023-02-28T11:16:10.049Z,1.07
2023-02-28T11:18:42.698Z,0.95
2023-02-28T11:21:17.154Z,1.02
2023-02-28T11:23:44.851Z,0.98
2023-02-28T11:26:14.899Z,0.95
2023-02-28T11:28:43.063Z,1.60
2023-02-28T11:31:12.678Z,1.10
2023-02-28T11:33:51.923Z,1.20
2023-02-28T11:36:26.620Z,1.13
2023-02-28T11:39:11.058Z,1.27
2023-02-28T11:42:06.447Z,1.50
2023-02-28T11:44:56.113Z,0.95
2023-02-28T11:47:28.967Z,1.40
2023-02-28T11:50:17.216Z,1.80
2023-02-28T11:53:01.528Z,1.30
2023-02-28T11:55:40.331Z,1.20
2023-02-28T11:58:25.346Z,1.10
2023-02-28T12:00:58.817Z,0.90
2023-02-28T12:03:44.761Z,3.47
2023-02-28T12:06:32.694Z,1.55
2023-02-28T12:09:24.674Z,2.90
2023-02-28T12:11:54.899Z,0.60
2023-02-28T12:14:52.544Z,1.20
2023-02-28T12:17:44.164Z,1.77
2023-02-28T12:20:34.616Z,1.23
2023-02-28T12:23:27.196Z,1.37
2023-02-28T12:26:23.202Z,1.15
2023-02-28T12:28:53.429Z,0.80
2023-02-28T12:31:29.504Z,1.10
2023-02-28T12:34:06.367Z,1.38
2023-02-28T12:36:37.032Z,2.40
2023-02-28T12:39:17.274Z,1.50
2023-02-28T12:41:54.387Z,1.30
2023-02-28T12:44:31.892Z,2.33
2023-02-28T12:47:06.581Z,1.33
2023-02-28T12:49:43.965Z,1.50
2023-02-28T12:52:14.839Z,1.10
2023-02-28T12:54:50.378Z,1.88
2023-02-28T12:57:41.089Z,1.65
2023-02-28T13:00:17.230Z,2.17
2023-02-28T13:03:18.904Z,1.80
2023-02-28T13:05:59.107Z,0.90
2023-02-28T13:08:28.613Z,1.70
2023-02-28T13:10:56.036Z,1.55
2023-02-28T13:13:27.861Z,1.30
2023-02-28T13:16:06.613Z,2.03
2023-02-28T13:18:40.628Z,1.30
2023-02-28T13:21:10.095Z,1.48
2023-02-28T13:23:40.040Z,1.58
2023-02-28T13:26:06.754Z,1.77
2023-02-28T13:28:51.885Z,2.00
2023-02-28T13:31:19.688Z,1.38
2023-02-28T13:33:46.193Z,1.25
2023-02-28T13:36:16.339Z,1.38
2023-02-28T13:39:05.109Z,1.38
2023-02-28T13:41:31.915Z,1.10
2023-02-28T13:44:04.394Z,2.05
2023-02-28T13:46:31.848Z,1.67
2023-02-28T13:49:25.813Z,0.80
2023-02-28T13:52:10.331Z,1.35
2023-02-28T13:55:16.987Z,2.00
2023-02-28T13:58:08.722Z,1.45
2023-02-28T14:00:53.895Z,1.40
2023-02-28T14:03:59.869Z,1.30
2023-02-28T14:06:31.493Z,2.60
2023-02-28T14:09:18.030Z,2.00
2023-02-28T14:11:46.600Z,1.65
2023-02-28T14:14:38.300Z,1.30
2023-02-28T14:17:10.633Z,1.38
2023-02-28T14:19:41.193Z,2.13
2023-02-28T14:22:13.629Z,2.10
2023-02-28T14:24:42.788Z,1.35
2023-02-28T14:27:36.246Z,1.75
2023-02-28T14:30:16.106Z,1.52
2023-02-28T14:32:52.050Z,1.25
2023-02-28T14:35:27.693Z,1.43
2023-02-28T14:37:56.065Z,1.60
2023-02-28T14:40:29.585Z,3.47
2023-02-28T14:43:05.056Z,3.40
2023-02-28T14:45:34.808Z,1.35
2023-02-28T14:48:09.402Z,3.20
2023-02-28T14:50:39.061Z,1.00
2023-02-28T14:53:16.641Z,2.10
2023-02-28T14:55:47.728Z,1.90
2023-02-28T14:58:25.011Z,1.65
2023-02-28T15:00:54.617Z,1.97
2023-02-28T15:03:26.225Z,4.32
2023-02-28T15:06:06.549Z,0.75
2023-02-28T15:08:40.809Z,1.42
2023-02-28T15:11:20.200Z,5.72
2023-02-28T15:13:53.037Z,3.33
2023-02-28T15:16:25.825Z,2.28
2023-02-28T15:18:58.518Z,1.10
2023-02-28T15:21:33.513Z,0.70
2023-02-28T15:24:11.827Z,3.10
2023-02-28T15:26:43.189Z,2.50
2023-02-28T15:29:16.906Z,1.77
2023-02-28T15:31:57.431Z,1.05
2023-02-28T15:34:43.126Z,5.57
2023-02-28T15:37:32.002Z,2.05
2023-02-28T15:40:08.664Z,0.83
2023-02-28T15:42:35.321Z,1.23
2023-02-28T15:45:01.938Z,1.33
2023-02-28T15:47:31.450Z,1.30
2023-02-28T15:49:59.901Z,1.08
2023-02-28T15:52:44.999Z,1.63
2023-02-28T15:55:19.273Z,1.65
2023-02-28T15:57:47.720Z,0.82
2023-02-28T16:00:17.407Z,1.42
2023-02-28T16:02:44.329Z,0.77
2023-02-28T16:05:11.026Z,2.57
2023-02-28T16:07:39.819Z,1.30
2023-02-28T16:10:08.941Z,1.60
2023-02-28T16:12:38.092Z,1.23
2023-02-28T16:15:10.580Z,1.33
2023-02-28T16:17:40.337Z,1.00
2023-02-28T16:20:31.643Z,1.20
2023-02-28T16:23:02.498Z,2.85
2023-02-28T16:25:40.819Z,2.15
2023-02-28T16:28:32.189Z,1.60
2023-02-28T16:31:00.904Z,1.07
2023-02-28T16:33:27.422Z,1.65
2023-02-28T16:35:54.368Z,2.33
2023-02-28T16:38:21.054Z,2.13
2023-02-28T16:40:47.651Z,1.27
2023-02-28T16:43:20.003Z,1.23
2023-02-28T16:45:46.921Z,1.50
2023-02-28T16:48:16.956Z,3.50
2023-02-28T16:50:47.030Z,1.27
2023-02-28T16:53:15.976Z,1.75
2023-02-28T16:55:42.720Z,1.53
2023-02-28T16:58:16.120Z,1.73
2023-02-28T17:00:42.734Z,1.80
2023-02-28T17:03:33.199Z,1.80
2023-02-28T17:06:01.019Z,2.08
2023-02-28T17:08:29.841Z,1.77
2023-02-28T17:10:56.529Z,1.65
2023-02-28T17:13:23.222Z,1.95
2023-02-28T17:15:50.232Z,5.20
2023-02-28T17:18:20.185Z,2.28
2023-02-28T17:20:47.316Z,2.17
2023-02-28T17:23:14.069Z,4.22
2023-02-28T17:25:40.676Z,4.22
2023-02-28T17:28:07.267Z,1.92
2023-02-28T17:30:35.465Z,2.20
2023-02-28T17:33:02.465Z,2.17
2023-02-28T17:35:29.407Z,4.88
2023-02-28T17:37:56.056Z,3.25
2023-02-28T17:40:24.489Z,2.38
2023-02-28T17:42:53.247Z,2.40
2023-02-28T17:45:20.898Z,3.23
2023-02-28T17:47:50.110Z,3.25
2023-02-28T17:50:23.028Z,3.67
2023-02-28T17:52:51.561Z,4.75
2023-02-28T17:55:20.098Z,2.30
2023-02-28T17:57:47.195Z,2.67
2023-02-28T18:00:18.451Z,2.92
2023-02-28T18:02:45.989Z,5.57
2023-02-28T18:05:12.974Z,3.42
2023-02-28T18:07:40.310Z,4.90
2023-02-28T18:10:12.850Z,5.83
2023-02-28T18:12:39.584Z,4.72
2023-02-28T18:15:07.168Z,4.13
2023-02-28T18:17:33.774Z,5.30
2023-02-28T18:20:00.676Z,3.53
2023-02-28T18:22:27.373Z,3.97
2023-02-28T18:24:54.155Z,4.88
2023-02-28T18:27:20.684Z,4.20
2023-02-28T18:29:47.308Z,2.60
2023-02-28T18:32:13.940Z,2.55
2023-02-28T18:34:40.558Z,3.00
2023-02-28T18:37:07.343Z,2.70
2023-02-28T18:39:33.970Z,3.35
2023-02-28T18:42:00.520Z,3.25
2023-02-28T18:44:27.365Z,2.83
2023-02-28T18:46:53.981Z,5.83
2023-02-28T18:49:20.860Z,3.42
2023-02-28T18:51:47.954Z,2.88
2023-02-28T18:54:15.899Z,3.85
2023-02-28T18:56:43.056Z,3.00
2023-02-28T18:59:10.592Z,2.70
2023-02-28T19:01:37.505Z,2.92
2023-02-28T19:04:05.124Z,7.68
2023-02-28T19:06:33.473Z,4.03
2023-02-28T19:09:02.444Z,4.18
2023-02-28T19:11:29.516Z,8.63
2023-02-28T19:13:56.774Z,4.18
2023-02-28T19:16:23.951Z,5.60
2023-02-28T19:18:51.166Z,8.38
2023-02-28T19:21:20.034Z,6.40
2023-02-28T19:23:46.749Z,6.10
2023-02-28T19:26:16.913Z,3.83
2023-02-28T19:28:43.809Z,3.67
2023-02-28T19:31:24.579Z,6.38
2023-02-28T19:33:53.064Z,5.15
2023-02-28T19:36:20.415Z,6.37
2023-02-28T19:38:47.345Z,6.07
2023-02-28T19:41:16.393Z,5.88
2023-02-28T19:43:43.140Z,5.97
2023-02-28T19:46:12.090Z,9.95
2023-02-28T19:48:39.254Z,6.60
2023-02-28T19:51:12.914Z,4.40
2023-02-28T19:53:41.203Z,6.30
2023-02-28T19:56:09.048Z,4.70
2023-02-28T19:58:36.520Z,5.78
2023-02-28T20:01:12.358Z,5.83
2023-02-28T20:03:39.566Z,6.38
2023-02-28T20:06:10.011Z,7.47
2023-02-28T20:08:37.337Z,6.70
2023-02-28T20:11:08.743Z,11.60
2023-02-28T20:13:35.691Z,13.90
2023-02-28T20:16:06.102Z,7.53
2023-02-28T20:18:33.609Z,11.15
2023-02-28T20:21:00.192Z,13.00
2023-02-28T20:23:27.224Z,8.07
2023-02-28T20:25:53.944Z,14.73
2023-02-28T20:28:21.031Z,8.73
2023-02-28T20:30:50.499Z,8.65
2023-02-28T20:33:19.369Z,11.85
2023-02-28T20:35:46.478Z,14.20
2023-02-28T20:38:13.141Z,8.93
2023-02-28T20:40:39.743Z,6.90
2023-02-28T20:43:06.999Z,7.63
2023-02-28T20:45:35.642Z,13.25
2023-02-28T20:48:02.243Z,12.05
2023-02-28T20:50:28.821Z,10.47
2023-02-28T20:52:55.413Z,14.02
2023-02-28T20:55:21.984Z,11.32
2023-02-28T20:57:50.238Z,13.10
2023-02-28T21:00:20.520Z,13.70
2023-02-28T21:02:47.316Z,12.53
2023-02-28T21:05:14.412Z,13.73
2023-02-28T21:07:40.952Z,11.75
2023-02-28T21:10:09.519Z,10.38
2023-02-28T21:12:36.271Z,17.52
2023-02-28T21:15:03.094Z,12.47
2023-02-28T21:17:29.837Z,11.85
2023-02-28T21:19:59.399Z,11.55
2023-02-28T21:22:25.973Z,10.35
2023-02-28T21:24:52.500Z,11.65
2023-02-28T21:27:19.157Z,10.73
2023-02-28T21:29:45.816Z,9.57
2023-02-28T21:32:12.687Z,8.68
2023-02-28T21:34:39.419Z,10.88
2023-02-28T21:37:07.428Z,12.32
2023-02-28T21:39:35.029Z,12.53
2023-02-28T21:42:04.355Z,8.48
2023-02-28T21:44:32.218Z,8.85
2023-02-28T21:47:02.253Z,9.77
2023-02-28T21:49:30.177Z,14.18
2023-02-28T21:51:57.488Z,10.67
2023-02-28T21:54:24.339Z,11.07
2023-02-28T21:56:51.687Z,9.77
2023-02-28T21:59:19.561Z,10.90
2023-02-28T22:01:46.974Z,10.25
2023-02-28T22:04:22.528Z,11.63
2023-02-28T22:06:52.987Z,9.57
2023-02-28T22:09:20.197Z,11.45
2023-02-28T22:11:47.337Z,9.35
2023-02-28T22:14:14.001Z,8.90
2023-02-28T22:16:51.228Z,7.60
2023-02-28T22:19:20.170Z,7.78
2023-02-28T22:21:47.793Z,8.85
2023-02-28T22:24:15.734Z,11.07
2023-02-28T22:26:43.255Z,10.35
2023-02-28T22:29:10.358Z,6.70
2023-02-28T22:31:37.230Z,7.25
2023-02-28T22:34:06.787Z,12.40
2023-02-28T22:36:33.928Z,12.82
2023-02-28T22:39:01.163Z,9.38
2023-02-28T22:41:28.324Z,15.20
2023-02-28T22:43:58.144Z,10.73
2023-02-28T22:46:26.234Z,12.52
2023-02-28T22:48:53.857Z,15.45
2023-02-28T22:51:25.635Z,12.65
2023-02-28T22:53:53.585Z,12.90
2023-02-28T22:56:24.682Z,12.90
2023-02-28T22:58:53.102Z,9.88
2023-02-28T23:01:22.209Z,17.50
2023-02-28T23:03:49.368Z,8.27
2023-02-28T23:06:18.834Z,11.67
2023-02-28T23:08:45.574Z,11.52
2023-02-28T23:11:18.331Z,12.23
2023-02-28T23:13:58.237Z,11.25
2023-02-28T23:16:30.656Z,12.10
2023-02-28T23:18:59.281Z,8.97
2023-02-28T23:21:27.215Z,10.73
2023-02-28T23:23:54.759Z,8.15
2023-02-28T23:26:21.643Z,10.10
2023-02-28T23:28:48.493Z,8.10
2023-02-28T23:31:15.986Z,12.53
2023-02-28T23:33:42.621Z,11.02
2023-02-28T23:36:14.933Z,11.60
2023-02-28T23:38:45.556Z,9.25
2023-02-28T23:41:13.510Z,8.82
2023-02-28T23:43:40.883Z,8.63
2023-02-28T23:46:09.449Z,9.10
2023-02-28T23:48:36.252Z,8.90
2023-02-28T23:51:10.551Z,7.88
2023-02-28T23:53:40.009Z,9.85
2023-02-28T23:56:08.318Z,7.27
2023-02-28T23:58:35.449Z,5.85
